Time;durP1;ratioP1;P1;durP2;ratioP2;P2;SDS_P1;SDS_P2;PMS_P1;PMS_P2;Temp;Humidity;BMP_temperature;BMP_pressure;BME280_temperature;BME280_humidity;BME280_pressure;Samples;Min_cycle;Max_cycle;Signal;HPM_P1;HPM_P2
2022/06/22 00:01:24;;;;;;;;;1.00;0.00;33.60;99.90;;;;;;4956324;28;8849;-60
2022/06/22 00:04:00;;;;;;;;;2.20;1.20;33.50;99.90;;;;;;4954475;28;8870;-60
2022/06/22 00:07:02;;;;;;;;;2.60;0.80;33.50;99.90;;;;;;4957238;28;8872;-56
2022/06/22 00:09:40;;;;;;;;;2.00;1.00;33.60;99.90;;;;;;4954986;28;8877;-56
2022/06/22 00:12:25;;;;;;;;;1.00;1.00;33.60;99.90;;;;;;4956072;28;8877;-57
2022/06/22 00:14:58;;;;;;;;;1.00;1.00;33.60;99.90;;;;;;4952997;28;8856;-57
2022/06/22 00:17:36;;;;;;;;;1.40;0.20;33.70;99.90;;;;;;4954149;28;8838;-60
2022/06/22 00:20:26;;;;;;;;;1.40;1.40;33.70;99.90;;;;;;4957089;28;8876;-60
2022/06/22 00:23:12;;;;;;;;;2.80;2.00;33.80;99.90;;;;;;4956068;28;8937;-60
2022/06/22 00:25:43;;;;;;;;;1.00;1.00;33.80;99.90;;;;;;4939589;28;8899;-56
2022/06/22 00:28:35;;;;;;;;;2.00;2.00;33.80;99.90;;;;;;4929346;28;9575;-57
2022/06/22 00:31:21;;;;;;;;;1.00;1.00;33.80;99.90;;;;;;4936566;28;8870;-60
2022/06/22 00:34:05;;;;;;;;;0.20;0.20;33.80;99.90;;;;;;4956530;28;8913;-59
2022/06/22 00:36:55;;;;;;;;;2.00;1.00;33.80;99.90;;;;;;4948884;28;9888;-59
2022/06/22 00:39:31;;;;;;;;;1.80;1.40;33.70;99.90;;;;;;4957445;28;8840;-60
2022/06/22 00:42:15;;;;;;;;;1.00;1.00;33.70;99.90;;;;;;4957476;28;8812;-60
2022/06/22 00:45:07;;;;;;;;;0.80;0.80;33.60;99.90;;;;;;4954259;28;9587;-59
2022/06/22 00:48:01;;;;;;;;;1.60;1.00;33.50;99.90;;;;;;4953507;28;8844;-60
2022/06/22 00:50:47;;;;;;;;;1.60;1.00;33.50;99.90;;;;;;4957198;28;8870;-59
2022/06/22 00:53:28;;;;;;;;;1.00;1.00;33.50;99.90;;;;;;4951966;28;8844;-60
2022/06/22 00:56:41;;;;;;;;;3.00;2.00;33.50;99.90;;;;;;4954358;28;8877;-56
2022/06/22 00:59:24;;;;;;;;;1.20;0.00;33.60;99.90;;;;;;4886388;28;8885;-56
2022/06/22 01:02:09;;;;;;;;;2.00;2.00;33.60;99.90;;;;;;4954428;28;8994;-59
2022/06/22 01:04:50;;;;;;;;;2.60;1.80;33.50;99.90;;;;;;4954349;28;8887;-60
2022/06/22 01:07:43;;;;;;;;;1.00;1.00;33.40;99.90;;;;;;4953428;28;8860;-60
2022/06/22 01:10:20;;;;;;;;;1.00;1.00;33.40;99.90;;;;;;4957936;28;8839;-60
2022/06/22 01:13:01;;;;;;;;;1.00;1.00;33.40;99.90;;;;;;4960515;28;8907;-59
2022/06/22 01:16:01;;;;;;;;;1.80;1.80;33.30;99.90;;;;;;4955719;28;8865;-57
2022/06/22 01:18:42;;;;;;;;;0.40;0.20;33.20;99.90;;;;;;4953634;28;9026;-58
2022/06/22 01:21:20;;;;;;;;;1.00;1.00;33.20;99.90;;;;;;4939828;28;8934;-60
2022/06/22 01:24:08;;;;;;;;;1.00;1.00;33.10;99.90;;;;;;4933869;28;9034;-59
2022/06/22 01:26:51;;;;;;;;;1.00;1.00;33.00;99.90;;;;;;4943513;28;8879;-57
2022/06/22 01:29:27;;;;;;;;;1.00;1.00;33.00;99.90;;;;;;4937954;28;9615;-55
2022/06/22 01:32:01;;;;;;;;;1.00;1.00;32.90;99.90;;;;;;4922617;28;8836;-57
2022/06/22 01:34:38;;;;;;;;;4.60;2.80;32.80;99.90;;;;;;4913397;28;8899;-56
2022/06/22 01:37:18;;;;;;;;;2.40;2.00;32.70;99.90;;;;;;4931856;28;8875;-57
2022/06/22 01:39:49;;;;;;;;;2.00;2.00;32.60;99.90;;;;;;4942194;28;8877;-58
2022/06/22 01:42:24;;;;;;;;;3.80;1.20;32.70;99.90;;;;;;4903564;28;8871;-59
2022/06/22 01:45:02;;;;;;;;;1.80;1.80;32.50;99.90;;;;;;4936415;28;9582;-58
2022/06/22 01:48:09;;;;;;;;;1.40;1.40;32.60;99.90;;;;;;4949291;28;8872;-56
2022/06/22 01:51:05;;;;;;;;;3.40;2.60;32.60;99.90;;;;;;4926159;28;8857;-57
2022/06/22 01:53:39;;;;;;;;;3.00;3.00;32.60;99.90;;;;;;4949425;28;8902;-57
2022/06/22 01:56:34;;;;;;;;;1.40;1.40;32.80;99.90;;;;;;4935672;28;8884;-56
2022/06/22 01:59:04;;;;;;;;;7.40;7.00;32.70;99.90;;;;;;4936028;28;8844;-57
2022/06/22 02:01:46;;;;;;;;;9.60;9.60;32.70;99.90;;;;;;4935657;28;9522;-57
2022/06/22 02:04:33;;;;;;;;;3.80;3.80;32.70;99.90;;;;;;4932566;28;8890;-56
2022/06/22 02:07:50;;;;;;;;;1.80;1.80;32.60;99.90;;;;;;4935319;28;8855;-59
2022/06/22 02:10:55;;;;;;;;;1.00;1.00;32.60;99.90;;;;;;4880553;29;8855;-57
2022/06/22 02:14:03;;;;;;;;;2.60;2.00;32.60;99.90;;;;;;4879330;29;8880;-58
2022/06/22 02:16:41;;;;;;;;;2.80;2.80;32.50;99.90;;;;;;4947841;28;8858;-58
2022/06/22 02:19:15;;;;;;;;;4.40;3.60;32.50;99.90;;;;;;4932460;28;8911;-57
2022/06/22 02:21:49;;;;;;;;;4.80;4.00;32.50;99.90;;;;;;4951667;28;8935;-59
2022/06/22 02:24:30;;;;;;;;;2.80;2.80;32.50;99.90;;;;;;4956800;28;9057;-59
2022/06/22 02:27:11;;;;;;;;;2.00;2.00;32.50;99.90;;;;;;4948266;28;8886;-58
2022/06/22 02:29:48;;;;;;;;;6.00;3.40;32.10;99.90;;;;;;4952635;28;8823;-59
2022/06/22 02:32:29;;;;;;;;;1.00;1.00;32.00;99.90;;;;;;4953996;28;8836;-56
2022/06/22 02:35:01;;;;;;;;;4.60;2.60;32.00;99.90;;;;;;4936933;28;8861;-57
2022/06/22 02:37:40;;;;;;;;;2.00;2.00;31.80;99.90;;;;;;4915990;28;10705;-59
2022/06/22 02:40:21;;;;;;;;;2.00;2.00;31.80;99.90;;;;;;4954957;28;8849;-59
2022/06/22 02:45:44;;;;;;;;;4.40;2.00;31.90;99.90;;;;;;4956449;28;8873;-57
2022/06/22 02:48:24;;;;;;;;;1.60;1.00;31.50;99.90;;;;;;4956165;28;8864;-58
2022/06/22 02:51:15;;;;;;;;;2.00;2.00;31.40;99.90;;;;;;4951830;28;8860;-57
2022/06/22 02:53:46;;;;;;;;;2.40;1.20;31.40;99.90;;;;;;4941869;28;8875;-56
2022/06/22 02:56:27;;;;;;;;;1.20;1.00;31.30;99.90;;;;;;4925634;28;8904;-58
2022/06/22 02:58:58;;;;;;;;;0.80;0.80;31.20;99.90;;;;;;4935732;28;8873;-57
2022/06/22 03:01:34;;;;;;;;;1.00;1.00;31.20;99.90;;;;;;4938669;28;8861;-56
2022/06/22 03:04:10;;;;;;;;;2.00;2.00;31.20;99.90;;;;;;4939616;28;8869;-59
2022/06/22 03:06:49;;;;;;;;;1.00;1.00;31.00;99.90;;;;;;4957815;28;8857;-58
2022/06/22 03:09:20;;;;;;;;;1.00;1.00;31.00;99.90;;;;;;4923208;28;8903;-59
2022/06/22 03:11:55;;;;;;;;;1.00;1.00;31.00;99.90;;;;;;4955261;28;8860;-58
2022/06/22 03:14:30;;;;;;;;;2.40;2.00;30.90;99.90;;;;;;4955365;28;8876;-60
2022/06/22 03:17:05;;;;;;;;;2.00;1.00;30.70;99.90;;;;;;4936564;28;8865;-59
2022/06/22 03:19:44;;;;;;;;;2.80;1.00;30.60;99.90;;;;;;4951668;28;9273;-60
2022/06/22 03:22:37;;;;;;;;;3.60;2.20;30.50;99.90;;;;;;4937904;28;8919;-58
2022/06/22 03:25:16;;;;;;;;;3.00;3.00;30.40;99.90;;;;;;4956414;28;8879;-57
2022/06/22 03:27:52;;;;;;;;;1.00;1.00;30.50;99.90;;;;;;4951906;28;8884;-59
2022/06/22 03:30:37;;;;;;;;;2.00;2.00;30.40;99.90;;;;;;4934425;28;8891;-58
2022/06/22 03:33:13;;;;;;;;;1.00;1.00;30.40;99.90;;;;;;4953044;28;9591;-58
2022/06/22 03:35:53;;;;;;;;;2.80;2.00;30.40;99.90;;;;;;4945080;28;9769;-59
2022/06/22 03:38:34;;;;;;;;;3.40;2.00;30.30;99.90;;;;;;4950451;28;8902;-60
2022/06/22 03:41:14;;;;;;;;;1.20;1.20;30.30;99.90;;;;;;4955776;28;8873;-58
2022/06/22 03:43:43;;;;;;;;;1.80;1.40;30.30;99.90;;;;;;4935864;28;8889;-59
2022/06/22 03:46:35;;;;;;;;;2.00;2.00;30.20;99.90;;;;;;4947166;28;9671;-58
2022/06/22 03:49:32;;;;;;;;;1.60;1.60;30.20;99.90;;;;;;4936283;28;8879;-57
2022/06/22 03:52:22;;;;;;;;;2.60;2.60;30.10;99.90;;;;;;4929515;28;8899;-57
2022/06/22 03:55:08;;;;;;;;;2.80;2.80;30.00;99.90;;;;;;4946643;28;8992;-57
2022/06/22 03:57:44;;;;;;;;;2.00;2.00;30.00;99.90;;;;;;4938019;28;9010;-58
2022/06/22 04:00:15;;;;;;;;;2.20;2.20;30.00;99.90;;;;;;4952253;28;8964;-57
2022/06/22 04:02:49;;;;;;;;;2.00;2.00;30.00;99.90;;;;;;4960957;28;8877;-58
2022/06/22 04:05:23;;;;;;;;;3.80;2.00;29.90;99.90;;;;;;4930382;28;8894;-58
2022/06/22 04:07:57;;;;;;;;;2.80;2.80;29.80;99.90;;;;;;4955647;28;8844;-58
2022/06/22 04:11:08;;;;;;;;;2.00;2.00;29.80;99.90;;;;;;4935971;28;8865;-59
2022/06/22 04:13:52;;;;;;;;;3.00;3.00;29.80;99.90;;;;;;4947520;28;8868;-61
2022/06/22 04:16:34;;;;;;;;;2.20;2.20;29.80;99.90;;;;;;4954671;28;8898;-59
2022/06/22 04:19:21;;;;;;;;;2.60;2.60;29.80;99.90;;;;;;4952086;28;8889;-60
2022/06/22 04:21:59;;;;;;;;;2.00;2.00;29.70;99.90;;;;;;4920233;28;9019;-60
2022/06/22 04:24:35;;;;;;;;;2.60;2.60;29.70;99.90;;;;;;4961364;28;8909;-60
2022/06/22 04:27:24;;;;;;;;;2.80;2.80;29.60;99.90;;;;;;4956376;28;8849;-57
2022/06/22 04:30:11;;;;;;;;;3.00;3.00;29.60;99.90;;;;;;4951349;28;8971;-56
2022/06/22 04:32:47;;;;;;;;;2.00;2.00;29.50;99.90;;;;;;4957977;28;8873;-56
2022/06/22 04:35:32;;;;;;;;;1.80;1.80;29.50;99.90;;;;;;4960619;28;9581;-59
2022/06/22 04:38:12;;;;;;;;;2.00;2.00;29.40;99.90;;;;;;4954919;28;9022;-58
2022/06/22 04:40:44;;;;;;;;;4.25;4.25;29.40;99.90;;;;;;4952570;28;9583;-57
2022/06/22 04:43:15;;;;;;;;;2.75;2.75;29.30;99.90;;;;;;4937558;28;8875;-57
2022/06/22 04:45:48;;;;;;;;;4.00;2.00;29.20;99.90;;;;;;4946408;28;8919;-57
2022/06/22 04:48:25;;;;;;;;;3.00;3.00;29.20;99.90;;;;;;4951543;28;8984;-57
2022/06/22 04:51:02;;;;;;;;;2.00;2.00;29.20;99.90;;;;;;4935975;28;8963;-57
2022/06/22 04:53:43;;;;;;;;;3.00;3.00;29.10;99.90;;;;;;4941491;28;8841;-57
2022/06/22 04:56:24;;;;;;;;;4.00;3.00;29.10;99.90;;;;;;4943899;28;8877;-58
2022/06/22 04:59:02;;;;;;;;;2.75;2.50;29.00;99.90;;;;;;4929864;28;8821;-58
2022/06/22 05:02:02;;;;;;;;;4.75;2.50;28.90;99.90;;;;;;4960714;28;8874;-59
2022/06/22 05:04:39;;;;;;;;;2.25;2.25;28.90;99.90;;;;;;4939091;28;8876;-57
2022/06/22 05:07:18;;;;;;;;;4.00;4.00;28.90;99.90;;;;;;4943716;28;8861;-60
2022/06/22 05:10:17;;;;;;;;;4.75;3.00;28.80;99.90;;;;;;4957060;28;8848;-59
2022/06/22 05:12:56;;;;;;;;;4.00;4.00;28.70;99.90;;;;;;4958122;28;8851;-58
2022/06/22 05:15:33;;;;;;;;;4.00;2.00;28.70;99.90;;;;;;4953324;28;8845;-59
2022/06/22 05:18:09;;;;;;;;;3.25;3.25;28.60;99.90;;;;;;4952694;28;9730;-57
2022/06/22 05:20:51;;;;;;;;;5.00;5.00;28.50;99.90;;;;;;4937554;28;8858;-58
2022/06/22 05:23:25;;;;;;;;;4.00;4.00;28.50;99.90;;;;;;4957501;28;8940;-57
2022/06/22 05:26:03;;;;;;;;;3.00;3.00;28.40;99.90;;;;;;4933106;28;9027;-58
2022/06/22 05:28:45;;;;;;;;;2.50;2.50;28.40;99.90;;;;;;4937904;28;8856;-58
2022/06/22 05:31:24;;;;;;;;;4.00;4.00;28.40;99.90;;;;;;4956158;28;8829;-58
2022/06/22 05:34:02;;;;;;;;;4.25;3.00;28.40;99.90;;;;;;4956607;28;8885;-58
2022/06/22 05:36:37;;;;;;;;;4.75;4.00;28.30;99.90;;;;;;4929288;28;9504;-58
2022/06/22 05:39:08;;;;;;;;;3.25;3.25;28.20;99.90;;;;;;4951096;28;9689;-58
2022/06/22 05:41:46;;;;;;;;;4.00;4.00;28.10;99.90;;;;;;4955253;28;9045;-60
2022/06/22 05:44:22;;;;;;;;;5.25;4.00;28.10;99.90;;;;;;4935761;28;8978;-56
2022/06/22 05:46:59;;;;;;;;;5.25;4.00;28.10;99.90;;;;;;4952910;28;8863;-59
2022/06/22 05:50:12;;;;;;;;;3.25;3.25;28.00;99.90;;;;;;4934693;28;9467;-57
2022/06/22 05:52:58;;;;;;;;;2.25;2.25;28.00;99.90;;;;;;4956402;28;8891;-58
2022/06/22 05:55:37;;;;;;;;;3.00;3.00;28.00;99.90;;;;;;4950468;28;8872;-59
2022/06/22 05:58:15;;;;;;;;;4.00;4.00;27.90;99.90;;;;;;4939513;28;8853;-59
2022/06/22 06:00:52;;;;;;;;;4.00;2.00;27.90;99.90;;;;;;4936371;28;8869;-58
2022/06/22 06:03:45;;;;;;;;;2.00;2.00;27.80;99.90;;;;;;4931810;28;8881;-59
2022/06/22 06:06:28;;;;;;;;;4.25;4.25;27.80;99.90;;;;;;4952512;28;8872;-58
2022/06/22 06:09:06;;;;;;;;;4.50;4.25;27.80;99.90;;;;;;4958644;28;8836;-58
2022/06/22 06:12:02;;;;;;;;;5.75;5.75;27.70;99.90;;;;;;4933573;28;8843;-58
2022/06/22 06:14:39;;;;;;;;;4.00;4.00;27.60;99.90;;;;;;4957934;28;8840;-58
2022/06/22 06:17:31;;;;;;;;;2.00;2.00;27.60;99.90;;;;;;4954143;28;8888;-57
2022/06/22 06:20:05;;;;;;;;;2.00;2.00;27.60;99.90;;;;;;4953792;28;9062;-59
2022/06/22 06:22:37;;;;;;;;;4.00;4.00;27.50;99.90;;;;;;4962005;28;8843;-59
2022/06/22 06:28:18;;;;;;;;;3.00;3.00;27.50;99.90;;;;;;4939028;28;8876;-59
2022/06/22 06:30:50;;;;;;;;;4.50;4.50;27.40;99.90;;;;;;4955047;28;8868;-59
2022/06/22 06:33:29;;;;;;;;;5.50;5.50;27.40;99.90;;;;;;4949420;28;8853;-58
2022/06/22 06:36:16;;;;;;;;;5.00;4.00;27.30;99.90;;;;;;4959893;28;8850;-59
2022/06/22 06:39:03;;;;;;;;;4.25;4.25;27.30;99.90;;;;;;4935787;28;8880;-59
2022/06/22 06:41:42;;;;;;;;;6.25;6.25;27.20;99.90;;;;;;4952757;28;8840;-59
2022/06/22 06:44:18;;;;;;;;;7.00;6.75;27.20;99.90;;;;;;4953594;28;8821;-60
2022/06/22 06:46:57;;;;;;;;;4.00;4.00;27.10;99.90;;;;;;4951605;28;9574;-57
2022/06/22 06:50:16;;;;;;;;;5.25;5.25;27.10;99.90;;;;;;4948319;28;8893;-59
2022/06/22 06:53:01;;;;;;;;;3.25;3.25;27.00;99.90;;;;;;4937815;28;8875;-58
2022/06/22 06:55:35;;;;;;;;;5.00;5.00;27.00;99.90;;;;;;4929646;28;8869;-57
2022/06/22 06:58:11;;;;;;;;;4.50;4.50;26.90;99.90;;;;;;4954148;28;9781;-59
2022/06/22 07:00:43;;;;;;;;;5.00;5.00;26.90;99.90;;;;;;4947072;28;8857;-58
2022/06/22 07:03:39;;;;;;;;;3.00;3.00;26.80;99.90;;;;;;4916277;28;8876;-59
2022/06/22 07:06:10;;;;;;;;;2.25;1.00;26.80;99.90;;;;;;4952274;28;8899;-59
2022/06/22 07:08:55;;;;;;;;;4.00;4.00;26.70;99.90;;;;;;4952142;28;8841;-59
2022/06/22 07:11:31;;;;;;;;;3.75;3.75;26.70;99.90;;;;;;4958245;28;9586;-58
2022/06/22 07:14:34;;;;;;;;;4.00;4.00;26.70;99.90;;;;;;4949017;28;8846;-57
2022/06/22 07:17:11;;;;;;;;;3.75;3.75;26.60;99.90;;;;;;4952009;28;8865;-55
2022/06/22 07:19:58;;;;;;;;;3.00;3.00;26.60;99.90;;;;;;4955331;28;8856;-54
2022/06/22 07:22:59;;;;;;;;;2.50;2.50;26.60;99.90;;;;;;4946132;28;8880;-58
2022/06/22 07:25:50;;;;;;;;;3.25;3.00;26.50;99.90;;;;;;4955964;28;8856;-58
2022/06/22 07:28:38;;;;;;;;;6.50;5.00;26.40;99.90;;;;;;4955317;28;8864;-58
2022/06/22 07:31:23;;;;;;;;;4.00;4.00;26.40;99.90;;;;;;4948828;28;8903;-56
2022/06/22 07:34:28;;;;;;;;;3.00;3.00;26.40;99.90;;;;;;4954487;28;9619;-55
2022/06/22 07:37:08;;;;;;;;;5.00;4.00;26.30;99.90;;;;;;4954311;28;8876;-57
2022/06/22 07:39:54;;;;;;;;;3.75;3.75;26.30;99.90;;;;;;4930988;28;8873;-56
2022/06/22 07:42:25;;;;;;;;;4.00;4.00;26.20;99.90;;;;;;4952310;28;8862;-58
2022/06/22 07:44:57;;;;;;;;;3.00;3.00;26.20;99.90;;;;;;4931840;28;8883;-58
2022/06/22 07:47:41;;;;;;;;;4.00;4.00;26.20;99.90;;;;;;4952946;28;9635;-55
2022/06/22 07:50:18;;;;;;;;;3.75;3.75;26.10;99.90;;;;;;4949187;28;8999;-56
2022/06/22 07:53:04;;;;;;;;;3.25;3.25;26.10;99.90;;;;;;4959385;28;8889;-59
2022/06/22 07:55:51;;;;;;;;;5.00;5.00;26.00;99.90;;;;;;4956196;28;8902;-58
2022/06/22 07:58:41;;;;;;;;;5.00;4.25;26.00;99.90;;;;;;4948767;28;8903;-58
2022/06/22 08:01:17;;;;;;;;;5.00;3.25;26.00;99.90;;;;;;4953539;28;8869;-56
2022/06/22 08:03:54;;;;;;;;;5.25;5.25;25.90;99.90;;;;;;4951520;28;8927;-57
2022/06/22 08:06:33;;;;;;;;;5.00;5.00;25.90;99.90;;;;;;4950661;28;8860;-58
2022/06/22 08:09:31;;;;;;;;;5.25;4.25;25.90;99.90;;;;;;4949522;28;8907;-58
2022/06/22 08:12:21;;;;;;;;;4.25;4.25;25.80;99.90;;;;;;4948865;28;8891;-56
2022/06/22 08:14:54;;;;;;;;;5.00;5.00;25.80;99.90;;;;;;4945920;28;9125;-57
2022/06/22 08:17:30;;;;;;;;;5.00;5.00;25.80;99.90;;;;;;4933130;28;9002;-58
2022/06/22 08:20:02;;;;;;;;;4.75;4.75;25.70;99.90;;;;;;4955362;28;8876;-58
2022/06/22 08:22:33;;;;;;;;;3.25;3.25;25.70;99.90;;;;;;4953010;28;8906;-56
2022/06/22 08:25:07;;;;;;;;;5.50;5.50;25.70;99.90;;;;;;4957620;28;8829;-57
2022/06/22 08:27:37;;;;;;;;;4.00;4.00;25.70;99.90;;;;;;4934258;28;8924;-56
2022/06/22 08:30:10;;;;;;;;;4.00;4.00;25.60;99.90;;;;;;4951760;28;8865;-56
2022/06/22 08:33:06;;;;;;;;;4.75;4.75;25.50;99.90;;;;;;4950439;28;8863;-58
2022/06/22 08:35:56;;;;;;;;;5.25;4.00;25.50;99.90;;;;;;4953739;28;8872;-58
2022/06/22 08:38:45;;;;;;;;;5.50;5.50;25.50;99.90;;;;;;4953487;28;8915;-57
2022/06/22 08:41:52;;;;;;;;;3.00;3.00;25.40;99.90;;;;;;4951680;28;8837;-57
2022/06/22 08:44:43;;;;;;;;;4.75;4.75;25.40;99.90;;;;;;4952068;28;8868;-56
2022/06/22 08:47:47;;;;;;;;;3.00;3.00;25.40;99.90;;;;;;4929402;28;8903;-58
2022/06/22 08:50:54;;;;;;;;;5.25;4.25;25.40;99.90;;;;;;4950389;28;8880;-58
2022/06/22 08:53:53;;;;;;;;;3.50;3.50;25.20;99.90;;;;;;4959288;28;8845;-56
2022/06/22 08:56:34;;;;;;;;;4.25;3.50;25.20;99.90;;;;;;4959121;28;8876;-56
2022/06/22 08:59:19;;;;;;;;;3.00;3.00;25.20;99.90;;;;;;4942078;28;8839;-55
2022/06/22 09:02:26;;;;;;;;;3.25;3.25;25.20;99.90;;;;;;4950883;28;8919;-58
2022/06/22 09:05:27;;;;;;;;;4.75;4.75;25.10;99.90;;;;;;4960633;28;8838;-57
2022/06/22 09:08:15;;;;;;;;;3.00;3.00;25.10;99.90;;;;;;4953532;28;9012;-56
2022/06/22 09:11:21;;;;;;;;;5.00;5.00;25.10;99.90;;;;;;4952925;28;8867;-57
2022/06/22 09:14:17;;;;;;;;;3.25;3.25;25.10;99.90;;;;;;4928122;28;10303;-58
2022/06/22 09:16:55;;;;;;;;;3.50;3.50;25.00;99.90;;;;;;4939889;28;8879;-58
2022/06/22 09:19:59;;;;;;;;;4.75;4.75;25.00;99.90;;;;;;4952517;28;8996;-57
2022/06/22 09:22:50;;;;;;;;;2.75;2.75;24.90;99.90;;;;;;4953988;28;8891;-58
2022/06/22 09:25:45;;;;;;;;;3.00;3.00;24.90;99.90;;;;;;4958449;28;8887;-58
2022/06/22 09:28:57;;;;;;;;;4.00;4.00;24.90;99.90;;;;;;4950292;28;8868;-58
2022/06/22 09:31:42;;;;;;;;;4.00;4.00;24.80;99.90;;;;;;4953168;28;8864;-58
2022/06/22 09:34:48;;;;;;;;;3.75;3.75;24.80;99.90;;;;;;4939727;28;8861;-58
2022/06/22 09:37:26;;;;;;;;;2.50;2.50;24.70;99.90;;;;;;4958158;28;8903;-55
2022/06/22 09:40:07;;;;;;;;;4.25;2.75;24.70;99.90;;;;;;4947865;28;8880;-55
2022/06/22 09:43:30;;;;;;;;;4.00;4.00;24.70;99.90;;;;;;4949552;28;8899;-54
2022/06/22 09:46:33;;;;;;;;;4.75;4.00;24.60;99.90;;;;;;4880502;29;9653;-55
2022/06/22 09:49:10;;;;;;;;;5.75;4.25;24.70;99.90;;;;;;4911088;28;8880;-55
2022/06/22 09:52:14;;;;;;;;;2.25;2.25;24.60;99.90;;;;;;4953966;28;8880;-57
2022/06/22 09:58:35;;;;;;;;;5.25;4.00;24.70;99.90;;;;;;4954850;28;8995;-56
2022/06/22 10:01:25;;;;;;;;;9.25;7.75;24.70;99.90;;;;;;4927155;28;8855;-57
2022/06/22 10:03:56;;;;;;;;;17.75;17.00;24.60;99.90;;;;;;4953908;28;8853;-58
2022/06/22 10:07:16;;;;;;;;;19.67;18.33;24.50;99.90;;;;;;4938496;28;8915;-58
2022/06/22 10:09:57;;;;;;;;;15.00;13.50;24.40;99.90;;;;;;4933650;28;8997;-58
2022/06/22 10:12:59;;;;;;;;;9.00;5.25;24.50;99.90;;;;;;4955815;28;8904;-57
2022/06/22 10:15:48;;;;;;;;;5.25;3.75;24.40;99.90;;;;;;4954727;28;9659;-56
2022/06/22 10:18:52;;;;;;;;;3.75;3.75;24.40;99.90;;;;;;4955006;28;8923;-55
2022/06/22 10:21:29;;;;;;;;;3.75;3.75;24.30;99.90;;;;;;4933950;28;8940;-57
2022/06/22 10:24:05;;;;;;;;;4.25;3.75;24.30;99.90;;;;;;4935748;28;9578;-57
2022/06/22 10:26:39;;;;;;;;;3.00;3.00;24.30;99.90;;;;;;4936639;28;8907;-57
2022/06/22 10:29:34;;;;;;;;;2.00;2.00;24.30;99.90;;;;;;4930745;28;8913;-58
2022/06/22 10:32:41;;;;;;;;;6.25;3.00;24.30;99.90;;;;;;4920047;28;9798;-58
2022/06/22 10:35:24;;;;;;;;;4.25;4.25;24.20;99.90;;;;;;4934483;28;8901;-57
2022/06/22 10:38:28;;;;;;;;;4.75;4.75;24.20;99.90;;;;;;4933042;28;8889;-57
2022/06/22 10:47:47;;;;;;;;;3.75;3.25;24.10;99.90;;;;;;4932325;28;9614;-57
2022/06/22 10:50:34;;;;;;;;;3.25;3.25;24.10;99.90;;;;;;4934151;28;8945;-57
2022/06/22 10:53:32;;;;;;;;;4.00;4.00;24.00;99.90;;;;;;4932865;28;8868;-54
2022/06/22 10:56:14;;;;;;;;;4.25;4.25;23.90;99.90;;;;;;4932943;28;8939;-59
2022/06/22 10:59:25;;;;;;;;;4.50;4.50;23.90;99.90;;;;;;4927151;28;8851;-57
2022/06/22 11:02:28;;;;;;;;;3.75;3.75;23.80;99.90;;;;;;4928544;28;9470;-62
2022/06/22 11:05:20;;;;;;;;;4.00;4.00;23.80;99.90;;;;;;4930504;28;8943;-58
2022/06/22 11:08:16;;;;;;;;;7.00;5.00;23.70;99.90;;;;;;4930626;28;8874;-58
2022/06/22 11:10:55;;;;;;;;;4.00;4.00;23.70;99.90;;;;;;4931180;28;8888;-58
2022/06/22 11:13:47;;;;;;;;;3.25;3.25;23.60;99.90;;;;;;4925826;28;8852;-57
2022/06/22 11:16:35;;;;;;;;;4.00;4.00;23.60;99.90;;;;;;4931918;28;8867;-58
2022/06/22 11:19:24;;;;;;;;;4.00;4.00;23.60;99.90;;;;;;4930470;28;8917;-62
2022/06/22 11:22:18;;;;;;;;;6.75;5.25;23.50;99.90;;;;;;4956335;28;9359;-57
2022/06/22 11:32:06;;;;;;;;;4.00;4.00;23.40;99.90;;;;;;4924072;28;8854;-56
2022/06/22 11:34:44;;;;;;;;;4.75;4.75;23.40;99.90;;;;;;4955771;28;8833;-58
2022/06/22 11:38:04;;;;;;;;;5.00;5.00;23.30;99.90;;;;;;4955169;28;9011;-57
2022/06/22 11:40:40;;;;;;;;;2.50;2.50;23.30;99.90;;;;;;4896487;29;8884;-57
2022/06/22 11:43:37;;;;;;;;;4.00;4.00;23.20;99.90;;;;;;4886152;29;9683;-57
2022/06/22 11:46:22;;;;;;;;;6.25;6.00;23.20;99.90;;;;;;4937484;28;8853;-54
2022/06/22 11:49:06;;;;;;;;;5.00;5.00;23.10;99.90;;;;;;4954102;28;8864;-55
2022/06/22 11:52:11;;;;;;;;;6.25;4.75;23.10;99.90;;;;;;4951172;28;8867;-54
2022/06/22 11:54:53;;;;;;;;;5.00;4.00;23.10;99.90;;;;;;4953946;28;8872;-55
2022/06/22 11:57:39;;;;;;;;;4.25;4.25;23.10;99.90;;;;;;4955166;28;8848;-57
2022/06/22 12:00:33;;;;;;;;;4.00;4.00;23.00;99.90;;;;;;4951475;28;8889;-58
2022/06/22 12:03:34;;;;;;;;;4.50;4.50;23.00;99.90;;;;;;4954435;28;8929;-59
2022/06/22 12:06:31;;;;;;;;;5.50;5.00;22.90;99.90;;;;;;4954892;28;8871;-57
2022/06/22 12:09:10;;;;;;;;;6.00;4.25;22.90;99.90;;;;;;4951416;28;8892;-59
2022/06/22 12:12:18;;;;;;;;;3.67;3.67;22.90;99.90;;;;;;4951004;28;8886;-57
2022/06/22 12:15:10;;;;;;;;;4.00;2.33;22.90;99.90;;;;;;4943463;28;9661;-58
2022/06/22 12:17:59;;;;;;;;;4.50;4.50;22.80;99.90;;;;;;4953092;28;9088;-54
2022/06/22 12:20:41;;;;;;;;;6.25;5.00;22.80;99.90;;;;;;4952609;28;8862;-57
2022/06/22 12:23:25;;;;;;;;;3.33;3.33;22.80;99.90;;;;;;4955194;28;9620;-57
2022/06/22 12:26:13;;;;;;;;;4.50;4.50;22.80;99.90;;;;;;4958584;28;9014;-56
2022/06/22 12:28:59;;;;;;;;;3.75;3.75;22.80;99.90;;;;;;4954933;28;8872;-58
2022/06/22 12:31:47;;;;;;;;;3.00;3.00;22.80;99.90;;;;;;4955734;28;8852;-57
2022/06/22 12:35:05;;;;;;;;;4.00;4.00;22.70;99.90;;;;;;4952756;28;9026;-56
2022/06/22 12:37:47;;;;;;;;;5.25;5.25;22.60;99.90;;;;;;4958045;28;9038;-55
2022/06/22 12:40:24;;;;;;;;;4.75;4.00;22.60;99.90;;;;;;4958759;28;8836;-54
2022/06/22 12:43:09;;;;;;;;;3.25;3.25;22.50;99.90;;;;;;4955399;28;8857;-58
2022/06/22 12:45:55;;;;;;;;;4.67;4.67;22.50;99.90;;;;;;4957199;28;8873;-56
2022/06/22 12:48:41;;;;;;;;;6.00;4.00;22.50;99.90;;;;;;4955816;28;9199;-55
2022/06/22 12:51:44;;;;;;;;;3.33;3.33;22.50;99.90;;;;;;4954407;28;9324;-56
2022/06/22 12:54:28;;;;;;;;;2.67;2.67;22.50;99.90;;;;;;4953935;28;9026;-55
2022/06/22 12:57:13;;;;;;;;;4.00;4.00;22.40;99.90;;;;;;4962617;28;9034;-58
2022/06/22 13:00:08;;;;;;;;;4.67;4.00;22.40;99.90;;;;;;4950936;28;9265;-58
2022/06/22 13:02:40;;;;;;;;;3.75;3.75;22.40;99.90;;;;;;4951460;28;9000;-56
2022/06/22 13:05:19;;;;;;;;;4.00;4.00;22.40;99.90;;;;;;4953668;28;8895;-56
2022/06/22 13:08:23;;;;;;;;;3.00;3.00;22.40;99.90;;;;;;4956248;28;9311;-57
2022/06/22 13:11:06;;;;;;;;;0.50;0.00;22.20;99.90;;;;;;4936660;28;8955;-54
2022/06/22 13:14:02;;;;;;;;;4.00;4.00;22.20;99.90;;;;;;4951228;28;8869;-56
2022/06/22 13:16:56;;;;;;;;;5.00;5.00;22.20;99.90;;;;;;4952430;28;9080;-58
2022/06/22 13:19:42;;;;;;;;;4.33;4.33;22.20;99.90;;;;;;4922310;28;8959;-58
2022/06/22 13:22:29;;;;;;;;;4.67;4.67;22.20;99.90;;;;;;4936095;28;9140;-57
2022/06/22 13:25:19;;;;;;;;;5.00;5.00;22.10;99.90;;;;;;4930759;28;9147;-58
2022/06/22 13:28:05;;;;;;;;;6.67;6.67;22.10;99.90;;;;;;4937693;28;9270;-58
2022/06/22 13:30:46;;;;;;;;;6.00;6.00;22.10;99.90;;;;;;4937147;28;9210;-56
2022/06/22 13:33:39;;;;;;;;;6.00;6.00;22.00;99.90;;;;;;4933124;28;9099;-57
2022/06/22 13:36:27;;;;;;;;;6.00;6.00;22.10;99.90;;;;;;4909243;28;9493;-56
2022/06/22 13:39:09;;;;;;;;;8.33;6.33;22.00;99.90;;;;;;4930265;28;9146;-57
2022/06/22 13:41:38;;;;;;;;;4.33;3.67;22.00;99.90;;;;;;4932327;28;9007;-58
2022/06/22 13:44:35;;;;;;;;;7.00;7.00;22.00;99.90;;;;;;4932787;28;9126;-58
2022/06/22 13:47:32;;;;;;;;;9.00;7.00;22.00;99.90;;;;;;4936683;28;9829;-57
2022/06/22 13:50:30;;;;;;;;;10.67;7.67;22.00;99.90;;;;;;4926696;28;9102;-58
2022/06/22 13:53:32;;;;;;;;;11.67;8.67;22.00;99.90;;;;;;4931813;28;9130;-58
2022/06/22 13:56:41;;;;;;;;;8.33;7.00;22.00;99.90;;;;;;4929604;28;9090;-57
2022/06/22 13:59:38;;;;;;;;;9.67;9.33;22.00;99.90;;;;;;4936878;28;9283;-57
2022/06/22 14:02:28;;;;;;;;;8.00;8.00;22.00;99.90;;;;;;4932728;28;9106;-58
2022/06/22 14:05:06;;;;;;;;;6.33;6.33;22.00;99.90;;;;;;4938695;28;9236;-58
2022/06/22 14:08:10;;;;;;;;;9.67;9.67;22.00;99.90;;;;;;4939254;28;9192;-57
2022/06/22 14:10:52;;;;;;;;;8.00;7.00;22.00;99.90;;;;;;4896709;28;9110;-57
2022/06/22 14:13:42;;;;;;;;;8.67;8.67;22.00;99.90;;;;;;4936713;28;9183;-58
2022/06/22 14:16:33;;;;;;;;;7.67;7.67;22.00;99.90;;;;;;4939334;28;9800;-55
2022/06/22 14:19:15;;;;;;;;;8.33;8.00;22.00;99.90;;;;;;4932970;28;9195;-58
2022/06/22 14:22:01;;;;;;;;;8.00;8.00;22.00;99.90;;;;;;4956359;28;9140;-57
2022/06/22 14:24:37;;;;;;;;;9.00;8.33;22.00;99.90;;;;;;4952867;28;9162;-57
2022/06/22 14:27:30;;;;;;;;;8.67;8.00;22.10;99.90;;;;;;4937254;28;9095;-55
2022/06/22 14:30:05;;;;;;;;;9.33;6.67;22.10;99.90;;;;;;4957241;28;9330;-57
2022/06/22 14:33:27;;;;;;;;;7.67;7.67;22.10;99.90;;;;;;4940188;28;9036;-57
2022/06/22 14:36:18;;;;;;;;;8.33;8.33;22.10;99.90;;;;;;4955308;28;8940;-58
2022/06/22 14:39:02;;;;;;;;;7.75;7.25;22.10;99.90;;;;;;4954401;28;9073;-58
2022/06/22 14:41:44;;;;;;;;;9.00;7.75;22.20;99.90;;;;;;4955615;28;8934;-58
2022/06/22 14:44:23;;;;;;;;;8.50;8.50;22.20;99.90;;;;;;4957331;28;8899;-58
2022/06/22 14:47:14;;;;;;;;;6.33;6.33;22.20;99.90;;;;;;4935196;28;8851;-58
2022/06/22 14:50:19;;;;;;;;;10.25;8.50;22.20;99.90;;;;;;4951814;28;9067;-60
2022/06/22 14:53:07;;;;;;;;;8.00;7.25;22.30;99.90;;;;;;4937804;28;9577;-58
2022/06/22 14:55:54;;;;;;;;;8.67;8.67;22.30;99.90;;;;;;4954250;28;8860;-58
2022/06/22 14:58:44;;;;;;;;;7.25;6.75;22.40;99.90;;;;;;4954624;28;8940;-57